createdAt,value
2016-05-17T00:00:23.844Z,1013.2
2016-05-17T00:01:23.847Z,1013.16
2016-05-17T00:02:23.850Z,1013.14
2016-05-17T00:03:23.852Z,1013.18
2016-05-17T00:04:23.870Z,1013.18
2016-05-17T00:05:23.872Z,1013.07
2016-05-17T00:06:23.875Z,1013.09
2016-05-17T00:07:23.878Z,1013.03
2016-05-17T00:08:23.880Z,1013
2016-05-17T00:09:23.899Z,1013.01
2016-05-17T00:10:23.902Z,1012.99
2016-05-17T00:11:23.905Z,1012.98
2016-05-17T00:12:23.908Z,1013.03
2016-05-17T00:13:23.910Z,1012.99
2016-05-17T00:14:23.944Z,1012.97
2016-05-17T00:15:23.930Z,1012.97
2016-05-17T00:16:23.933Z,1012.99
2016-05-17T00:17:23.936Z,1012.95
2016-05-17T00:18:23.954Z,1012.96
2016-05-17T00:19:23.974Z,1012.93
2016-05-17T00:20:23.960Z,1012.93
2016-05-17T00:21:23.963Z,1012.97
2016-05-17T00:22:23.966Z,1012.93
2016-05-17T00:23:23.984Z,1012.97
2016-05-17T00:24:23.987Z,1012.96
2016-05-17T00:25:24.004Z,1012.93
2016-05-17T00:26:24.007Z,1012.94
2016-05-17T00:27:24.010Z,1012.92
2016-05-17T00:28:24.013Z,1012.93
2016-05-17T00:29:24.015Z,1012.94
2016-05-17T00:30:24.018Z,1012.93
2016-05-17T00:31:24.036Z,1012.91
2016-05-17T00:32:24.040Z,1012.92
2016-05-17T00:33:24.042Z,1012.9
2016-05-17T00:34:24.044Z,1012.94
2016-05-17T00:35:24.047Z,1012.92
2016-05-17T00:36:24.675Z,1012.95
2016-05-17T00:37:24.069Z,1012.91
2016-05-17T00:38:24.072Z,1012.95
2016-05-17T00:39:24.074Z,1012.95
2016-05-17T00:40:24.092Z,1012.92
2016-05-17T00:41:24.094Z,1012.91
2016-05-17T00:42:24.097Z,1012.93
2016-05-17T00:43:24.100Z,1012.92
2016-05-17T00:44:24.103Z,1012.92
2016-05-17T00:45:24.122Z,1012.95
2016-05-17T00:46:24.124Z,1012.95
2016-05-17T00:47:24.127Z,1012.94
2016-05-17T00:48:24.130Z,1012.93
2016-05-17T00:49:24.147Z,1012.93
2016-05-17T00:50:24.149Z,1013
2016-05-17T00:51:24.512Z,1012.94
2016-05-17T00:52:24.155Z,1012.92
2016-05-17T00:53:24.158Z,1012.92
2016-05-17T00:54:24.176Z,1012.89
2016-05-17T00:55:24.179Z,1012.92
2016-05-17T00:56:24.182Z,1012.89
2016-05-17T00:57:24.184Z,1012.9
2016-05-17T00:58:24.187Z,1012.93
2016-05-17T00:59:24.206Z,1012.88
2016-05-17T01:00:24.209Z,1012.91
2016-05-17T01:01:24.212Z,1012.87
2016-05-17T01:02:24.214Z,1012.9
2016-05-17T01:03:24.217Z,1012.88
2016-05-17T01:04:24.234Z,1012.84
2016-05-17T01:05:24.237Z,1012.84
2016-05-17T01:06:24.474Z,1012.83
2016-05-17T01:07:24.259Z,1012.84
2016-05-17T01:08:24.261Z,1012.84
2016-05-17T01:09:24.264Z,1012.81
2016-05-17T01:10:24.267Z,1012.79
2016-05-17T01:11:24.269Z,1012.8
2016-05-17T01:12:24.288Z,1012.76
2016-05-17T01:13:24.291Z,1012.76
2016-05-17T01:14:24.293Z,1012.75
2016-05-17T01:15:24.296Z,1012.74
2016-05-17T01:16:24.314Z,1012.74
2016-05-17T01:17:24.317Z,1012.69
2016-05-17T01:18:24.319Z,1012.69
2016-05-17T01:19:24.322Z,1012.68
2016-05-17T01:20:24.341Z,1012.69
2016-05-17T01:21:24.343Z,1012.67
2016-05-17T01:22:24.346Z,1012.68
2016-05-17T01:23:24.348Z,1012.64
2016-05-17T01:24:24.351Z,1012.65
2016-05-17T01:25:24.354Z,1012.63
2016-05-17T01:26:24.372Z,1012.62
2016-05-17T01:27:24.374Z,1012.63
2016-05-17T01:28:24.377Z,1012.64
2016-05-17T01:29:24.379Z,1012.63
2016-05-17T01:30:24.398Z,1012.59
2016-05-17T01:31:24.401Z,1012.63
2016-05-17T01:32:24.403Z,1012.66
2016-05-17T01:33:24.423Z,1012.64
2016-05-17T01:34:24.409Z,1012.64
2016-05-17T01:35:24.428Z,1012.59
2016-05-17T01:36:24.431Z,1012.63
2016-05-17T01:37:24.448Z,1012.64
2016-05-17T01:38:24.436Z,1012.61
2016-05-17T01:39:24.453Z,1012.61
2016-05-17T01:40:24.456Z,1012.56
2016-05-17T01:41:24.475Z,1012.55
2016-05-17T01:42:24.462Z,1012.54
2016-05-17T01:43:24.464Z,1012.51
2016-05-17T01:44:24.467Z,1012.53
2016-05-17T01:45:24.485Z,1012.49
2016-05-17T01:46:24.488Z,1012.51
2016-05-17T01:47:24.491Z,1012.49
2016-05-17T01:48:24.509Z,1012.47
2016-05-17T01:49:24.513Z,1012.45
2016-05-17T01:50:24.515Z,1012.44
2016-05-17T01:51:24.814Z,1012.48
2016-05-17T01:52:24.521Z,1012.45
2016-05-17T01:53:24.523Z,1012.45
2016-05-17T01:54:24.541Z,1012.42
2016-05-17T01:55:24.543Z,1012.4
2016-05-17T01:56:24.546Z,1012.41
2016-05-17T01:57:24.549Z,1012.4
2016-05-17T01:58:24.568Z,1012.45
2016-05-17T01:59:24.570Z,1012.43
2016-05-17T02:00:24.573Z,1012.43
2016-05-17T02:01:24.576Z,1012.43
2016-05-17T02:02:24.578Z,1012.4
2016-05-17T02:03:24.596Z,1012.39
2016-05-17T02:04:24.598Z,1012.38
2016-05-17T02:05:24.602Z,1012.39
2016-05-17T02:06:24.604Z,1012.4
2016-05-17T02:07:24.607Z,1012.33
2016-05-17T02:08:24.626Z,1012.33
2016-05-17T02:09:24.628Z,1012.33
2016-05-17T02:10:24.631Z,1012.33
2016-05-17T02:11:24.634Z,1012.32
2016-05-17T02:12:24.636Z,1012.32
2016-05-17T02:13:24.655Z,1012.33
2016-05-17T02:14:24.658Z,1012.26
2016-05-17T02:15:24.660Z,1012.27
2016-05-17T02:16:24.663Z,1012.27
2016-05-17T02:17:24.681Z,1012.32
2016-05-17T02:18:24.683Z,1012.27
2016-05-17T02:19:24.687Z,1012.29
2016-05-17T02:20:24.688Z,1012.25
2016-05-17T02:21:24.988Z,1012.28
2016-05-17T02:22:24.710Z,1012.25
2016-05-17T02:23:24.713Z,1012.29
2016-05-17T02:24:24.716Z,1012.29
2016-05-17T02:25:24.718Z,1012.28
2016-05-17T02:26:24.737Z,1012.28
2016-05-17T02:27:24.740Z,1012.29
2016-05-17T02:28:24.742Z,1012.26
2016-05-17T02:29:24.745Z,1012.3
2016-05-17T02:30:24.748Z,1012.3
2016-05-17T02:31:24.751Z,1012.27
2016-05-17T02:32:24.768Z,1012.3
2016-05-17T02:33:24.771Z,1012.28
2016-05-17T02:34:24.773Z,1012.24
2016-05-17T02:35:24.776Z,1012.26
2016-05-17T02:36:24.778Z,1012.27
2016-05-17T02:37:24.860Z,1012.24
2016-05-17T02:38:24.800Z,1012.26
2016-05-17T02:39:24.803Z,1012.2
2016-05-17T02:40:24.806Z,1012.24
2016-05-17T02:41:24.823Z,1012.19
2016-05-17T02:42:24.826Z,1012.2
2016-05-17T02:43:24.828Z,1012.2
2016-05-17T02:44:24.831Z,1012.15
2016-05-17T02:45:24.834Z,1012.17
2016-05-17T02:46:24.853Z,1012.15
2016-05-17T02:47:24.856Z,1012.14
2016-05-17T02:48:24.858Z,1012.11
2016-05-17T02:49:24.860Z,1012.11
2016-05-17T02:50:24.879Z,1012.1
2016-05-17T02:51:25.242Z,1012.07
2016-05-17T02:52:24.885Z,1012.08
2016-05-17T02:53:24.888Z,1012.06
2016-05-17T02:54:24.890Z,1012.08
2016-05-17T02:55:24.908Z,1012.05
2016-05-17T02:56:24.911Z,1012.06
2016-05-17T02:57:24.929Z,1012.08
2016-05-17T02:58:24.916Z,1012.04
2016-05-17T02:59:24.935Z,1012.03
2016-05-17T03:00:24.938Z,1011.99
2016-05-17T03:01:24.940Z,1012
2016-05-17T03:02:24.943Z,1012
2016-05-17T03:03:24.945Z,1011.96
2016-05-17T03:04:24.964Z,1011.95
2016-05-17T03:05:24.967Z,1011.96
2016-05-17T03:06:24.969Z,1011.95
2016-05-17T03:07:24.972Z,1011.92
2016-05-17T03:08:24.990Z,1011.93
2016-05-17T03:09:24.992Z,1011.93
2016-05-17T03:10:24.995Z,1011.93
2016-05-17T03:11:24.998Z,1011.94
2016-05-17T03:12:25.017Z,1011.94
2016-05-17T03:13:25.003Z,1011.91
2016-05-17T03:14:25.022Z,1011.94
2016-05-17T03:15:25.024Z,1011.95
2016-05-17T03:16:25.028Z,1011.96
2016-05-17T03:17:25.030Z,1011.92
2016-05-17T03:18:25.033Z,1011.92
2016-05-17T03:19:25.051Z,1011.91
2016-05-17T03:20:25.053Z,1011.9
2016-05-17T03:21:25.055Z,1011.92
2016-05-17T03:22:25.058Z,1011.92
2016-05-17T03:23:25.077Z,1011.91
2016-05-17T03:24:25.080Z,1011.9
2016-05-17T03:25:25.082Z,1011.88
2016-05-17T03:26:25.148Z,1011.89
2016-05-17T03:27:25.088Z,1011.89
2016-05-17T03:28:25.107Z,1011.93
2016-05-17T03:29:25.109Z,1011.9
2016-05-17T03:30:25.112Z,1011.9
2016-05-17T03:31:25.114Z,1011.9
2016-05-17T03:32:25.118Z,1011.88
2016-05-17T03:33:25.121Z,1011.86
2016-05-17T03:34:25.138Z,1011.86
2016-05-17T03:35:25.141Z,1011.88
2016-05-17T03:36:25.143Z,1011.84
2016-05-17T03:37:25.146Z,1011.85
2016-05-17T03:38:25.164Z,1011.82
2016-05-17T03:39:25.168Z,1011.81
2016-05-17T03:40:25.170Z,1011.79
2016-05-17T03:41:25.173Z,1011.79
2016-05-17T03:42:25.191Z,1011.8
2016-05-17T03:43:25.194Z,1011.77
2016-05-17T03:44:25.197Z,1011.78
2016-05-17T03:45:25.199Z,1011.8
2016-05-17T03:46:25.202Z,1011.81
2016-05-17T03:47:25.219Z,1011.8
2016-05-17T03:48:25.223Z,1011.76
2016-05-17T03:49:25.225Z,1011.8
2016-05-17T03:50:25.227Z,1011.74
2016-05-17T03:51:25.747Z,1011.75
2016-05-17T03:52:25.249Z,1011.75
2016-05-17T03:53:25.252Z,1011.76
2016-05-17T03:54:25.254Z,1011.72
2016-05-17T03:55:25.257Z,1011.74
2016-05-17T03:56:25.260Z,1011.7
2016-05-17T03:57:25.278Z,1011.72
2016-05-17T03:58:25.280Z,1011.74
2016-05-17T03:59:25.283Z,1011.72
2016-05-17T04:00:25.286Z,1011.73
2016-05-17T04:01:25.304Z,1011.71
2016-05-17T04:02:25.307Z,1011.71
2016-05-17T04:03:25.309Z,1011.73
2016-05-17T04:04:25.313Z,1011.74
2016-05-17T04:05:25.316Z,1011.69
2016-05-17T04:06:25.521Z,1011.7
2016-05-17T04:07:25.337Z,1011.68
2016-05-17T04:08:25.339Z,1011.67
2016-05-17T04:09:25.342Z,1011.66
2016-05-17T04:10:25.359Z,1011.7
2016-05-17T04:11:25.362Z,1011.66
2016-05-17T04:12:25.365Z,1011.67
2016-05-17T04:13:25.368Z,1011.68
2016-05-17T04:14:25.370Z,1011.67
2016-05-17T04:15:25.373Z,1011.65
2016-05-17T04:16:25.392Z,1011.69
2016-05-17T04:17:25.394Z,1011.69
2016-05-17T04:18:25.397Z,1011.71
2016-05-17T04:19:25.399Z,1011.7
2016-05-17T04:20:25.403Z,1011.68
2016-05-17T04:21:25.765Z,1011.7
2016-05-17T04:22:25.424Z,1011.67
2016-05-17T04:23:25.427Z,1011.66
2016-05-17T04:24:25.429Z,1011.65
2016-05-17T04:25:25.432Z,1011.67
2016-05-17T04:26:25.449Z,1011.66
2016-05-17T04:27:25.452Z,1011.63
2016-05-17T04:28:25.455Z,1011.61
2016-05-17T04:29:25.458Z,1011.64
2016-05-17T04:30:25.460Z,1011.62
2016-05-17T04:31:25.479Z,1011.64
2016-05-17T04:32:25.482Z,1011.62
2016-05-17T04:33:25.484Z,1011.59
2016-05-17T04:34:25.502Z,1011.6
2016-05-17T04:35:25.489Z,1011.6
2016-05-17T04:36:25.508Z,1011.61
2016-05-17T04:37:25.511Z,1011.6
2016-05-17T04:38:25.513Z,1011.63
2016-05-17T04:39:25.516Z,1011.64
2016-05-17T04:40:25.534Z,1011.66
2016-05-17T04:41:25.537Z,1011.63
2016-05-17T04:42:25.539Z,1011.59
2016-05-17T04:43:25.542Z,1011.61
2016-05-17T04:44:25.545Z,1011.62
2016-05-17T04:45:25.564Z,1011.64
2016-05-17T04:46:25.567Z,1011.64
2016-05-17T04:47:25.569Z,1011.6
2016-05-17T04:48:25.572Z,1011.65
2016-05-17T04:49:25.589Z,1011.64
2016-05-17T04:50:25.592Z,1011.67
2016-05-17T04:51:25.594Z,1011.65
2016-05-17T04:52:25.598Z,1011.65
2016-05-17T04:53:25.601Z,1011.63
2016-05-17T04:54:25.619Z,1011.68
2016-05-17T04:55:25.622Z,1011.64
2016-05-17T04:56:25.624Z,1011.63
2016-05-17T04:57:25.627Z,1011.66
2016-05-17T04:58:25.646Z,1011.64
2016-05-17T04:59:25.632Z,1011.66
2016-05-17T05:00:25.651Z,1011.68
2016-05-17T05:01:25.654Z,1011.69
2016-05-17T05:02:25.657Z,1011.66
2016-05-17T05:03:25.659Z,1011.67
2016-05-17T05:04:25.677Z,1011.62
2016-05-17T05:05:25.679Z,1011.68
2016-05-17T05:06:25.682Z,1011.68
2016-05-17T05:07:25.684Z,1011.67
2016-05-17T05:08:25.687Z,1011.71
2016-05-17T05:09:25.712Z,1011.66
2016-05-17T05:10:25.773Z,1011.67
2016-05-17T05:11:25.819Z,1011.67
2016-05-17T05:12:25.864Z,1011.66
2016-05-17T05:13:25.910Z,1011.65
2016-05-17T05:14:25.957Z,1011.67
2016-05-17T05:15:25.975Z,1011.67
2016-05-17T05:16:25.994Z,1011.66
2016-05-17T05:17:26.011Z,1011.66
2016-05-17T05:18:26.030Z,1011.63
2016-05-17T05:19:26.059Z,1011.67
2016-05-17T05:20:26.067Z,1011.61
2016-05-17T05:21:26.075Z,1011.63
2016-05-17T05:22:26.083Z,1011.65
2016-05-17T05:23:26.090Z,1011.65
2016-05-17T05:24:26.097Z,1011.57
2016-05-17T05:25:26.118Z,1011.61
2016-05-17T05:26:26.123Z,1011.61
2016-05-17T05:27:26.142Z,1011.59
2016-05-17T05:28:26.147Z,1011.55
2016-05-17T05:29:26.151Z,1011.54
2016-05-17T05:30:26.154Z,1011.54
2016-05-17T05:31:26.157Z,1011.55
2016-05-17T05:32:26.161Z,1011.56
2016-05-17T05:33:26.181Z,1011.55
2016-05-17T05:34:26.183Z,1011.58
2016-05-17T05:35:26.187Z,1011.6
2016-05-17T05:36:26.190Z,1011.59
2016-05-17T05:37:26.193Z,1011.58
2016-05-17T05:38:26.212Z,1011.57
2016-05-17T05:39:26.215Z,1011.65
2016-05-17T05:40:26.232Z,1011.65
2016-05-17T05:41:26.220Z,1011.59
2016-05-17T05:42:26.238Z,1011.59
2016-05-17T05:43:26.241Z,1011.56
2016-05-17T05:44:26.259Z,1011.59
2016-05-17T05:45:26.246Z,1011.6
2016-05-17T05:46:26.249Z,1011.58
2016-05-17T05:47:26.251Z,1011.58
2016-05-17T05:48:26.271Z,1011.55
2016-05-17T05:49:26.272Z,1011.57
2016-05-17T05:50:26.290Z,1011.57
2016-05-17T05:51:26.278Z,1011.58
2016-05-17T05:52:26.312Z,1011.63
2016-05-17T05:53:26.299Z,1011.57
2016-05-17T05:54:26.302Z,1011.56
2016-05-17T05:55:26.304Z,1011.56
2016-05-17T05:56:26.307Z,1011.59
2016-05-17T05:57:26.326Z,1011.58
2016-05-17T05:58:26.328Z,1011.6
2016-05-17T05:59:26.331Z,1011.6
2016-05-17T06:00:26.334Z,1011.6
2016-05-17T06:01:26.336Z,1011.62
2016-05-17T06:03:26.358Z,1011.63
2016-05-17T06:04:26.360Z,1011.61
2016-05-17T06:05:26.363Z,1011.54
2016-05-17T06:06:26.630Z,1011.6
2016-05-17T06:07:26.368Z,1011.58
2016-05-17T06:08:26.386Z,1011.59
2016-05-17T06:09:26.389Z,1011.58
2016-05-17T06:10:26.391Z,1011.59
2016-05-17T06:11:26.410Z,1011.62
2016-05-17T06:12:26.396Z,1011.63
2016-05-17T06:13:26.415Z,1011.62
2016-05-17T06:14:26.418Z,1011.62
2016-05-17T06:15:26.421Z,1011.59
2016-05-17T06:16:26.423Z,1011.61
2016-05-17T06:17:26.426Z,1011.6
2016-05-17T06:18:26.445Z,1011.59
2016-05-17T06:19:26.447Z,1011.6
2016-05-17T06:20:26.451Z,1011.61
2016-05-17T06:21:26.453Z,1011.56
2016-05-17T06:22:26.470Z,1011.57
2016-05-17T06:23:26.473Z,1011.56
2016-05-17T06:24:26.476Z,1011.52
2016-05-17T06:25:26.479Z,1011.51
2016-05-17T06:26:26.482Z,1011.51
2016-05-17T06:27:26.485Z,1011.46
2016-05-17T06:28:26.486Z,1011.48
2016-05-17T06:29:26.506Z,1011.46
2016-05-17T06:30:26.508Z,1011.43
2016-05-17T06:31:26.511Z,1011.38
2016-05-17T06:32:26.529Z,1011.43
2016-05-17T06:33:26.532Z,1011.36
2016-05-17T06:34:26.534Z,1011.35
2016-05-17T06:35:26.537Z,1011.4
2016-05-17T06:36:26.540Z,1011.36
2016-05-17T06:37:26.542Z,1011.35
2016-05-17T06:38:26.561Z,1011.35
2016-05-17T06:39:26.563Z,1011.37
2016-05-17T06:40:26.566Z,1011.38
2016-05-17T06:41:26.569Z,1011.34
2016-05-17T06:42:26.588Z,1011.4
2016-05-17T06:43:26.590Z,1011.32
2016-05-17T06:44:26.593Z,1011.37
2016-05-17T06:45:26.596Z,1011.39
2016-05-17T06:46:26.598Z,1011.42
2016-05-17T06:47:26.601Z,1011.36
2016-05-17T06:48:26.618Z,1011.33
2016-05-17T06:49:26.621Z,1011.42
2016-05-17T06:50:26.624Z,1011.37
2016-05-17T06:51:26.627Z,1011.39
2016-05-17T06:52:26.629Z,1011.39
2016-05-17T06:53:26.632Z,1011.37
2016-05-17T06:54:26.651Z,1011.42
2016-05-17T06:55:26.653Z,1011.44
2016-05-17T06:56:26.656Z,1011.43
2016-05-17T06:57:26.658Z,1011.46
2016-05-17T06:58:26.678Z,1011.39
2016-05-17T06:59:26.680Z,1011.42
2016-05-17T07:00:26.683Z,1011.45
2016-05-17T07:01:26.685Z,1011.45
2016-05-17T07:02:26.688Z,1011.45
2016-05-17T07:03:26.706Z,1011.45
2016-05-17T07:04:26.708Z,1011.45
2016-05-17T07:05:26.711Z,1011.47
2016-05-17T07:06:26.714Z,1011.47
2016-05-17T07:07:26.717Z,1011.51
2016-05-17T07:08:26.719Z,1011.48
2016-05-17T07:09:26.738Z,1011.48
2016-05-17T07:10:26.740Z,1011.49
2016-05-17T07:11:26.743Z,1011.47
2016-05-17T07:12:26.761Z,1011.49
2016-05-17T07:13:26.764Z,1011.5
2016-05-17T07:14:26.766Z,1011.5
2016-05-17T07:15:26.769Z,1011.53
2016-05-17T07:16:26.772Z,1011.46
2016-05-17T07:17:26.791Z,1011.48
2016-05-17T07:18:26.793Z,1011.49
2016-05-17T07:19:26.921Z,1011.48
2016-05-17T07:20:26.814Z,1011.48
2016-05-17T07:21:26.801Z,1011.52
2016-05-17T07:22:26.820Z,1011.47
2016-05-17T07:23:26.822Z,1011.5
2016-05-17T07:24:26.826Z,1011.52
2016-05-17T07:25:26.828Z,1011.49
2016-05-17T07:26:26.831Z,1011.51
2016-05-17T07:27:26.849Z,1011.48
2016-05-17T07:28:26.851Z,1011.53
2016-05-17T07:29:26.854Z,1011.52
2016-05-17T07:30:26.856Z,1011.55
2016-05-17T07:31:26.875Z,1011.51
2016-05-17T07:32:26.878Z,1011.5
2016-05-17T07:33:26.881Z,1011.47
2016-05-17T07:34:26.899Z,1011.44
2016-05-17T07:35:26.886Z,1011.5
2016-05-17T07:36:26.905Z,1011.43
2016-05-17T07:37:26.907Z,1011.46
2016-05-17T07:38:26.910Z,1011.44
2016-05-17T07:39:26.913Z,1011.47
2016-05-17T07:40:26.930Z,1011.51
2016-05-17T07:41:26.918Z,1011.49
2016-05-17T07:42:26.936Z,1011.49
2016-05-17T07:43:26.938Z,1011.45
2016-05-17T07:44:26.941Z,1011.47
2016-05-17T07:45:26.959Z,1011.46
2016-05-17T07:46:26.963Z,1011.46
2016-05-17T07:47:26.966Z,1011.48
2016-05-17T07:48:26.968Z,1011.46
2016-05-17T07:49:26.986Z,1011.51
2016-05-17T07:50:26.988Z,1011.48
2016-05-17T07:51:27.007Z,1011.46
2016-05-17T07:52:26.994Z,1011.47
2016-05-17T07:53:26.996Z,1011.48
2016-05-17T07:54:27.015Z,1011.43
2016-05-17T07:55:27.017Z,1011.46
2016-05-17T07:56:27.021Z,1011.47
2016-05-17T07:57:27.023Z,1011.45
2016-05-17T07:58:27.042Z,1011.5
2016-05-17T07:59:27.045Z,1011.47
2016-05-17T08:00:27.047Z,1011.5
2016-05-17T08:01:27.050Z,1011.47
2016-05-17T08:02:27.068Z,1011.44
2016-05-17T08:03:27.070Z,1011.47
2016-05-17T08:04:27.073Z,1011.51
2016-05-17T08:05:27.075Z,1011.49
2016-05-17T08:06:27.361Z,1011.49
2016-05-17T08:07:27.097Z,1011.5
2016-05-17T08:08:27.099Z,1011.48
2016-05-17T08:09:27.119Z,1011.49
2016-05-17T08:10:27.121Z,1011.5
2016-05-17T08:11:27.124Z,1011.48
2016-05-17T08:12:27.127Z,1011.51
2016-05-17T08:13:27.129Z,1011.5
2016-05-17T08:14:27.147Z,1011.48
2016-05-17T08:15:27.149Z,1011.48
2016-05-17T08:16:27.152Z,1011.46
2016-05-17T08:17:27.155Z,1011.46
2016-05-17T08:18:27.173Z,1011.49
2016-05-17T08:19:27.176Z,1011.44
2016-05-17T08:20:27.179Z,1011.46
2016-05-17T08:21:27.196Z,1011.42
2016-05-17T08:22:27.200Z,1011.44
2016-05-17T08:23:27.202Z,1011.47
2016-05-17T08:24:27.221Z,1011.41
2016-05-17T08:25:27.223Z,1011.45
2016-05-17T08:26:27.226Z,1011.44
2016-05-17T08:27:27.229Z,1011.45
2016-05-17T08:28:27.247Z,1011.48
2016-05-17T08:29:27.234Z,1011.46
2016-05-17T08:30:27.253Z,1011.44
2016-05-17T08:31:27.256Z,1011.48
2016-05-17T08:32:27.258Z,1011.48
2016-05-17T08:33:27.276Z,1011.5
2016-05-17T08:34:27.279Z,1011.51
2016-05-17T08:35:27.282Z,1011.53
2016-05-17T08:36:27.300Z,1011.49
2016-05-17T08:37:27.694Z,1011.51
2016-05-17T08:38:27.306Z,1011.49
2016-05-17T08:39:27.308Z,1011.49
2016-05-17T08:40:27.327Z,1011.5
2016-05-17T08:41:27.330Z,1011.53
2016-05-17T08:42:27.332Z,1011.52
2016-05-17T08:43:27.335Z,1011.55
2016-05-17T08:44:27.352Z,1011.49
2016-05-17T08:45:27.355Z,1011.53
2016-05-17T08:46:27.358Z,1011.54
2016-05-17T08:47:27.361Z,1011.54
2016-05-17T08:48:27.379Z,1011.52
2016-05-17T08:49:27.382Z,1011.52
2016-05-17T08:50:27.384Z,1011.52
2016-05-17T08:51:27.402Z,1011.46
2016-05-17T08:52:27.405Z,1011.51
2016-05-17T08:53:27.408Z,1011.53
2016-05-17T08:54:27.411Z,1011.46
2016-05-17T08:55:27.429Z,1011.54
2016-05-17T08:56:27.432Z,1011.48
2016-05-17T08:57:27.435Z,1011.5
2016-05-17T08:58:27.437Z,1011.47
2016-05-17T08:59:27.456Z,1011.49
2016-05-17T09:00:27.459Z,1011.43
2016-05-17T09:01:27.461Z,1011.46
2016-05-17T09:02:27.464Z,1011.49
2016-05-17T09:03:27.481Z,1011.53
2016-05-17T09:04:27.484Z,1011.47
2016-05-17T09:05:27.487Z,1011.47
2016-05-17T09:06:27.630Z,1011.43
2016-05-17T09:07:27.508Z,1011.45
2016-05-17T09:08:27.511Z,1011.4
2016-05-17T09:09:27.530Z,1011.38
2016-05-17T09:10:27.533Z,1011.4
2016-05-17T09:11:27.535Z,1011.39
2016-05-17T09:12:27.538Z,1011.36
2016-05-17T09:13:27.540Z,1011.39
2016-05-17T09:14:27.544Z,1011.33
2016-05-17T09:15:27.561Z,1011.42
2016-05-17T09:16:27.564Z,1011.36
2016-05-17T09:17:27.566Z,1011.41
2016-05-17T09:18:27.585Z,1011.44
2016-05-17T09:19:27.587Z,1011.36
2016-05-17T09:20:27.590Z,1011.36
2016-05-17T09:21:27.608Z,1011.34
2016-05-17T09:22:27.611Z,1011.35
2016-05-17T09:23:27.630Z,1011.37
2016-05-17T09:24:27.616Z,1011.31
2016-05-17T09:25:27.635Z,1011.31
2016-05-17T09:26:27.638Z,1011.37
2016-05-17T09:27:27.640Z,1011.32
2016-05-17T09:28:27.643Z,1011.32
2016-05-17T09:29:27.646Z,1011.33
2016-05-17T09:30:27.664Z,1011.34
2016-05-17T09:31:27.667Z,1011.29
2016-05-17T09:32:27.670Z,1011.34
2016-05-17T09:33:27.673Z,1011.26
2016-05-17T09:34:27.675Z,1011.3
2016-05-17T09:35:27.693Z,1011.27
2016-05-17T09:36:27.696Z,1011.24
2016-05-17T09:37:27.714Z,1011.27
2016-05-17T09:38:27.717Z,1011.24
2016-05-17T09:39:27.720Z,1011.26
2016-05-17T09:40:27.738Z,1011.22
2016-05-17T09:41:27.741Z,1011.28
2016-05-17T09:42:27.744Z,1011.25
2016-05-17T09:43:27.746Z,1011.2
2016-05-17T09:44:27.764Z,1011.21
2016-05-17T09:45:27.782Z,1011.21
2016-05-17T09:46:27.769Z,1011.18
2016-05-17T09:47:27.772Z,1011.18
2016-05-17T09:48:27.774Z,1011.16
2016-05-17T09:49:27.793Z,1011.13
2016-05-17T09:50:27.796Z,1011.15
2016-05-17T09:51:27.814Z,1011.13
2016-05-17T09:52:27.817Z,1011.14
2016-05-17T09:53:27.820Z,1011.13
2016-05-17T09:54:27.821Z,1011.14
2016-05-17T09:55:27.825Z,1011.12
2016-05-17T09:56:27.844Z,1011.07
2016-05-17T09:57:27.846Z,1011.07
2016-05-17T09:58:27.849Z,1011.09
2016-05-17T09:59:27.851Z,1011.07
2016-05-17T10:00:27.870Z,1011.16
2016-05-17T10:01:27.873Z,1011.06
2016-05-17T10:02:27.875Z,1011.06
2016-05-17T10:03:27.893Z,1011.03
2016-05-17T10:04:27.896Z,1011.02
2016-05-17T10:05:27.898Z,1011.04
2016-05-17T10:06:27.964Z,1011.02
2016-05-17T10:07:27.920Z,1010.95
2016-05-17T10:08:27.923Z,1010.95
2016-05-17T10:09:27.923Z,1010.91
2016-05-17T10:10:27.941Z,1010.94
2016-05-17T10:11:27.944Z,1011.05
2016-05-17T10:12:27.946Z,1010.97
2016-05-17T10:13:27.950Z,1010.96
2016-05-17T10:14:27.967Z,1010.98
2016-05-17T10:15:27.970Z,1010.97
2016-05-17T10:16:27.973Z,1010.95
2016-05-17T10:17:27.991Z,1010.88
2016-05-17T10:18:27.994Z,1010.96
2016-05-17T10:19:27.997Z,1010.96
2016-05-17T10:20:27.999Z,1010.91
2016-05-17T10:21:28.017Z,1010.9
2016-05-17T10:22:28.317Z,1010.87
2016-05-17T10:23:28.022Z,1010.89
2016-05-17T10:24:28.041Z,1010.82
2016-05-17T10:25:28.043Z,1010.82
2016-05-17T10:26:28.047Z,1010.85
2016-05-17T10:27:28.049Z,1010.96
2016-05-17T10:28:28.067Z,1010.88
2016-05-17T10:29:28.071Z,1010.84
2016-05-17T10:30:28.073Z,1010.83
2016-05-17T10:31:28.075Z,1010.9
2016-05-17T10:32:28.094Z,1010.9
2016-05-17T10:33:28.096Z,1010.81
2016-05-17T10:34:28.099Z,1010.79
2016-05-17T10:35:28.118Z,1010.76
2016-05-17T10:36:28.120Z,1010.84
2016-05-17T10:37:28.122Z,1010.77
2016-05-17T10:38:28.126Z,1010.75
2016-05-17T10:39:28.144Z,1010.77
2016-05-17T10:40:28.147Z,1010.78
2016-05-17T10:41:28.150Z,1010.75
2016-05-17T10:42:28.153Z,1010.79
2016-05-17T10:43:28.170Z,1010.77
2016-05-17T10:44:28.173Z,1010.73
2016-05-17T10:45:28.176Z,1010.71
2016-05-17T10:46:28.178Z,1010.75
2016-05-17T10:47:28.197Z,1010.73
2016-05-17T10:48:28.200Z,1010.8
2016-05-17T10:49:28.202Z,1010.77
2016-05-17T10:50:28.205Z,1010.72
2016-05-17T10:51:28.223Z,1010.63
2016-05-17T10:52:28.336Z,1010.73
2016-05-17T10:53:28.228Z,1010.74
2016-05-17T10:54:28.247Z,1010.75
2016-05-17T10:55:28.249Z,1010.66
2016-05-17T10:56:28.252Z,1010.67
2016-05-17T10:57:28.255Z,1010.76
2016-05-17T10:58:28.273Z,1010.72
2016-05-17T10:59:28.276Z,1010.72
2016-05-17T11:00:28.279Z,1010.7
2016-05-17T11:01:28.282Z,1010.75
2016-05-17T11:02:28.299Z,1010.6
2016-05-17T11:03:28.302Z,1010.61
2016-05-17T11:04:28.304Z,1010.6
2016-05-17T11:05:28.323Z,1010.67
2016-05-17T11:06:28.326Z,1010.65
2016-05-17T11:07:28.328Z,1010.64
2016-05-17T11:08:28.331Z,1010.65
2016-05-17T11:09:28.350Z,1010.62
2016-05-17T11:10:28.353Z,1010.57
2016-05-17T11:11:28.355Z,1010.53
2016-05-17T11:12:28.358Z,1010.49
2016-05-17T11:13:28.375Z,1010.72
2016-05-17T11:14:28.378Z,1010.59
2016-05-17T11:15:28.381Z,1010.65
2016-05-17T11:16:28.383Z,1010.52
2016-05-17T11:17:28.402Z,1010.56
2016-05-17T11:18:28.405Z,1010.53
2016-05-17T11:19:28.408Z,1010.52
2016-05-17T11:20:28.426Z,1010.51
2016-05-17T11:21:28.429Z,1010.48
2016-05-17T11:22:28.946Z,1010.56
2016-05-17T11:23:28.449Z,1010.48
2016-05-17T11:24:28.453Z,1010.48
2016-05-17T11:25:28.455Z,1010.45
2016-05-17T11:26:28.458Z,1010.42
2016-05-17T11:27:28.461Z,1010.4
2016-05-17T11:28:28.479Z,1010.36
2016-05-17T11:29:28.482Z,1010.33
2016-05-17T11:30:28.484Z,1010.26
2016-05-17T11:31:28.502Z,1010.29
2016-05-17T11:32:28.505Z,1010.29
2016-05-17T11:33:28.508Z,1010.28
2016-05-17T11:34:28.510Z,1010.35
2016-05-17T11:35:28.513Z,1010.26
2016-05-17T11:36:28.532Z,1010.27
2016-05-17T11:37:28.534Z,1010.27
2016-05-17T11:38:28.536Z,1010.26
2016-05-17T11:39:28.540Z,1010.26
2016-05-17T11:40:28.542Z,1010.34
2016-05-17T11:41:28.561Z,1010.23
2016-05-17T11:42:28.564Z,1010.27
2016-05-17T11:43:28.566Z,1010.23
2016-05-17T11:44:28.615Z,1010.23
2016-05-17T11:45:28.586Z,1010.21
2016-05-17T11:46:28.589Z,1010.19
2016-05-17T11:47:28.608Z,1010.18
2016-05-17T11:48:28.611Z,1010.2
2016-05-17T11:49:28.613Z,1010.17
2016-05-17T11:50:28.616Z,1010.15
2016-05-17T11:51:28.666Z,1010.22
2016-05-17T11:52:28.652Z,1010.21
2016-05-17T11:53:28.639Z,1010.21
2016-05-17T11:54:28.642Z,1010.21
2016-05-17T11:55:28.660Z,1010.17
2016-05-17T11:56:28.647Z,1010.25
2016-05-17T11:57:28.650Z,1010.21
2016-05-17T11:58:28.668Z,1010.23
2016-05-17T11:59:28.672Z,1010.25
2016-05-17T12:00:28.675Z,1010.26
2016-05-17T12:01:28.676Z,1010.26
2016-05-17T12:02:28.695Z,1010.29
2016-05-17T12:03:28.698Z,1010.26
2016-05-17T12:04:28.716Z,1010.32
2016-05-17T12:05:28.703Z,1010.27
2016-05-17T12:06:28.707Z,1010.34
2016-05-17T12:07:28.834Z,1010.28
2016-05-17T12:08:28.726Z,1010.28
2016-05-17T12:09:28.729Z,1010.32